x

Point Arguello, Ca (ptgc1) Weather Station

7:00pm - Wed 24th May 2017 All times are PDT. -7 hours from GMT.

  • Wind
    8mph, 9mph gusts
  • Air Temp 55°f
  • Sea Pressure 1010.5mb
  • Point Arguello, Ca
  • Point Arguello, Ca

More Historic Weather Station data

Upgrade to MSW Pro to gain access to the past 30 days of data for over 8000 Wavebouys and Weather Stations around the globe.

Join Pro

Comparision Forecast

View Surf forecast
   
Wed 05/24 7:00pm 8 9 mph 1010.5mb 55f
6:00pm 9 11 mph 1010.7mb 56f
5:00pm 8 9 mph 1011.1mb 55f
4:00pm 7 9 mph 1011.6mb 54f
3:00pm 13 14 mph 1011.6mb 55f
2:00pm 21 22 mph 1011.6mb 55f
1:00pm 17 18 mph 1012.4mb 54f
12:00pm 21 23 mph 1012mb 54f
11:00am 14 15 mph 1013.2mb 53f
10:00am 15 17 mph 1013.6mb 52f
9:00am 16 17 mph 1013.3mb 52f
8:00am 13 15 mph 1013.4mb 51f
7:00am 11 13 mph 1013.1mb 50f
6:00am 16 17 mph 1012.6mb 51f
5:00am 22 23 mph 1012.2mb 50f
4:00am 20 22 mph 1012.5mb 51f
3:00am 23 24 mph 1012.1mb 51f
2:00am 20 21 mph 1012.5mb 51f
1:00am 22 23 mph 1012.9mb 51f
12:00am 24 26 mph 1013mb 51f
Tue 05/23 11:00pm 26 29 mph 1013.5mb 51f
10:00pm 30 31 mph 1013mb 52f
9:00pm 30 31 mph 1013.1mb 52f
8:00pm 26 28 mph 1013.4mb 51f
7:00pm 25 26 mph 1013.3mb 52f
6:00pm 25 28 mph 1013.6mb 52f
5:00pm 28 29 mph 1014mb 53f
4:00pm 24 25 mph 1014.8mb 53f
3:00pm 23 24 mph 1015.7mb 53f
2:00pm 21 23 mph 1016.3mb 53f
1:00pm 18 20 mph 1016.7mb 53f
12:00pm 7 8 mph 1017.4mb 52f
11:00am 5 6 mph 1016.8mb 50f
10:00am 14 15 mph 1015.7mb 50f
9:00am 17 20 mph 1015.3mb 49f
8:00am 16 17 mph 1015.2mb 50f
7:00am 21 22 mph 1014.7mb 49f
6:00am 13 15 mph 1014.8mb 50f
5:00am 9 10 mph 1014.8mb 50f
4:00am 17 18 mph 1014.3mb 50f
3:00am 25 28 mph 1014.1mb 50f
2:00am 28 31 mph 1014.5mb 50f
1:00am 26 28 mph 1015mb 51f
12:00am 26 29 mph 1015.3mb 51f
Mon 05/22 11:00pm 25 29 mph 1015.2mb 51f
10:00pm 28 29 mph 1015.1mb 51f
9:00pm 25 26 mph 1015mb 51f
8:00pm 23 25 mph 1014.8mb 51f
7:00pm 26 28 mph 1014.2mb 52f
6:00pm 28 29 mph 1014.3mb 52f
5:00pm 28 31 mph 1014.8mb 52f
4:00pm 23 25 mph 1015.6mb 52f
3:00pm 21 23 mph 1016.2mb 53f
2:00pm 18 20 mph 1016.2mb 52f
1:00pm 16 17 mph 1016.5mb 51f
12:00pm 16 17 mph 1016.7mb 50f
11:00am 13 13 mph 1016.6mb 50f
10:00am 15 16 mph 1016.3mb 49f
9:00am 18 20 mph 1015.9mb 49f
8:00am 21 23 mph 1015.2mb 49f
7:00am 20 22 mph 1014.8mb 49f
6:00am 21 23 mph 1014.5mb 49f
5:00am 24 26 mph 1014.1mb 49f
4:00am 24 25 mph 1014.1mb 49f
3:00am 28 30 mph 1014mb 50f
2:00am 30 31 mph 1014mb 50f
1:00am 28 31 mph 1014.3mb 50f
12:00am 28 30 mph 1014.5mb 50f
Sun 05/21 11:00pm 32 33 mph 1014.6mb 51f
10:00pm 31 33 mph 1014.4mb 51f
9:00pm 31 32 mph 1014.4mb 51f
8:00pm 30 33 mph 1014.1mb 51f
7:00pm 29 31 mph 1013.9mb 51f
6:00pm 28 30 mph 1014mb 52f
5:00pm 24 28 mph 1014.1mb 53f
4:00pm 23 26 mph 1014.2mb 54f
3:00pm 17 18 mph 1014.9mb 52f
2:00pm 14 15 mph 1015.2mb 52f
1:00pm 13 14 mph 1015.1mb 51f
12:00pm 14 15 mph 1014.9mb 49f
11:00am 13 14 mph 1014.5mb 49f
10:00am 14 14 mph 1014.3mb 49f
9:00am 18 20 mph 1013.7mb 48f
8:00am 17 18 mph 1013.3mb 48f
7:00am 29 30 mph 1012.5mb 48f
6:00am 26 28 mph 1012mb 48f
5:00am 25 28 mph 1011.6mb 48f
4:00am 24 26 mph 1011.9mb 48f